createdAt,value
2022-12-23T04:00:20.712Z,1.00
2022-12-23T04:01:20.526Z,1.10
2022-12-23T04:02:20.711Z,1.00
2022-12-23T04:05:20.676Z,1.00
2022-12-23T06:33:49.755Z,1.39
2022-12-23T06:35:49.687Z,1.00
2022-12-23T06:56:24.154Z,0.70
2022-12-23T06:57:30.159Z,0.80
2022-12-23T06:58:24.129Z,0.80
2022-12-23T06:59:24.132Z,0.60
2022-12-23T07:00:24.105Z,0.80
2022-12-23T07:01:24.137Z,0.90
2022-12-23T07:02:24.366Z,0.90
2022-12-23T07:03:30.177Z,1.00
2022-12-23T07:06:24.066Z,0.90
2022-12-23T07:07:24.046Z,1.00
2022-12-23T07:08:24.056Z,0.90
2022-12-23T07:09:24.019Z,0.90
2022-12-23T07:10:24.001Z,1.10
2022-12-23T07:11:23.997Z,0.90
2022-12-23T07:12:23.978Z,0.90
2022-12-23T07:13:24.185Z,1.10
2022-12-23T07:14:23.958Z,1.00
2022-12-23T07:15:24.158Z,1.10
2022-12-23T07:17:23.930Z,1.29
2022-12-23T07:18:23.917Z,0.80
2022-12-23T07:19:58.635Z,0.80
2022-12-23T07:20:58.589Z,0.80
2022-12-23T07:21:58.571Z,0.80
2022-12-23T07:22:58.785Z,0.90
2022-12-23T07:23:58.795Z,1.10
2022-12-23T07:24:58.550Z,1.20
2022-12-23T07:25:58.528Z,1.10
2022-12-23T07:26:58.548Z,1.10
2022-12-23T07:27:58.518Z,1.50
2022-12-23T07:28:58.524Z,1.39
2022-12-23T07:30:41.195Z,1.39
2022-12-23T07:31:41.490Z,1.39
2022-12-23T07:32:41.163Z,1.10
2022-12-23T07:33:41.343Z,1.20
2022-12-23T07:35:15.827Z,1.20
2022-12-23T07:36:15.833Z,1.50
2022-12-23T07:37:15.793Z,1.20
2022-12-23T07:38:15.799Z,1.29
2022-12-23T07:39:16.010Z,1.39
2022-12-23T07:40:15.777Z,1.29
2022-12-23T07:42:24.988Z,1.00
2022-12-23T07:42:59.751Z,1.20
2022-12-23T07:43:58.476Z,0.90
2022-12-23T07:44:58.675Z,1.10
2022-12-23T07:46:01.247Z,1.29
2022-12-23T07:47:04.671Z,1.20
2022-12-23T07:47:58.449Z,0.90
2022-12-23T07:48:58.627Z,1.00
2022-12-23T07:49:58.425Z,0.90
2022-12-23T07:50:58.455Z,1.00
2022-12-23T07:51:58.399Z,1.10
2022-12-23T07:52:58.378Z,0.90
2022-12-23T07:53:58.392Z,1.29
2022-12-23T07:54:58.379Z,1.10
2022-12-23T07:55:58.391Z,1.00
2022-12-23T07:56:58.338Z,0.90
2022-12-23T07:57:58.336Z,0.90
2022-12-23T07:59:04.325Z,0.70
2022-12-23T07:59:58.327Z,1.00
2022-12-23T08:00:58.365Z,0.90
2022-12-23T08:01:58.504Z,0.90
2022-12-23T08:02:58.473Z,1.00
2022-12-23T08:03:58.481Z,0.80
2022-12-23T08:04:58.522Z,0.70
2022-12-23T08:05:58.258Z,0.60
2022-12-23T08:06:58.435Z,0.80
2022-12-23T08:07:58.236Z,0.70
2022-12-23T08:08:58.213Z,0.60
2022-12-23T08:09:58.223Z,0.80
2022-12-23T08:11:04.225Z,0.90
2022-12-23T08:12:04.203Z,0.90
2022-12-23T08:12:58.171Z,0.60
2022-12-23T08:14:04.186Z,0.80
2022-12-23T08:14:58.154Z,0.60
2022-12-23T08:15:58.161Z,0.70
2022-12-23T08:16:58.234Z,0.70
2022-12-23T08:17:58.133Z,0.60
2022-12-23T08:18:58.135Z,0.70
2022-12-23T08:20:04.330Z,0.80
2022-12-23T08:20:58.089Z,0.60
2022-12-23T08:21:58.101Z,0.40
2022-12-23T08:22:58.082Z,0.70
2022-12-23T08:23:58.280Z,0.60
2022-12-23T08:24:58.054Z,0.70
2022-12-23T08:25:58.048Z,0.60
2022-12-23T08:26:58.055Z,0.50
2022-12-23T08:27:58.040Z,0.70
2022-12-23T08:28:58.009Z,0.60
2022-12-23T08:29:58.011Z,0.60
2022-12-23T08:30:58.262Z,0.50
2022-12-23T08:31:57.988Z,0.60
2022-12-23T08:32:58.028Z,0.80
2022-12-23T08:34:00.035Z,0.50
2022-12-23T08:34:57.986Z,0.70
2022-12-23T08:35:58.138Z,0.70
2022-12-23T08:36:57.942Z,0.60
2022-12-23T08:37:58.120Z,0.80
2022-12-23T08:38:57.920Z,0.50
2022-12-23T08:39:57.892Z,0.60
2022-12-23T08:40:57.901Z,0.50
2022-12-23T08:41:57.867Z,0.50
2022-12-23T08:42:58.232Z,0.60
2022-12-23T08:43:57.852Z,0.50
2022-12-23T08:44:57.854Z,0.50
2022-12-23T08:45:57.952Z,0.80
2022-12-23T08:46:57.845Z,0.50
2022-12-23T08:47:57.822Z,0.70
2022-12-23T08:48:57.862Z,0.60
2022-12-23T08:49:57.792Z,0.60
2022-12-23T08:51:03.791Z,0.70
2022-12-23T08:51:57.982Z,0.70
2022-12-23T08:52:57.772Z,0.70
2022-12-23T08:54:00.480Z,0.70
2022-12-23T08:54:57.757Z,0.80
2022-12-23T08:56:03.757Z,0.80
2022-12-23T08:56:57.730Z,0.80
2022-12-23T08:57:57.710Z,0.70
2022-12-23T08:58:57.947Z,0.90
2022-12-23T08:59:57.888Z,0.70
2022-12-23T09:00:57.879Z,0.80
2022-12-23T09:01:59.986Z,0.80
2022-12-23T09:02:57.884Z,0.60
2022-12-23T09:03:57.793Z,0.80
2022-12-23T09:04:57.645Z,0.80
2022-12-23T09:05:57.639Z,0.80
2022-12-23T09:06:57.625Z,0.70
2022-12-23T09:08:03.630Z,0.70
2022-12-23T09:08:57.601Z,0.90
2022-12-23T09:09:57.795Z,0.70
2022-12-23T09:10:57.572Z,0.80
2022-12-23T09:11:57.570Z,0.70
2022-12-23T09:12:58.198Z,0.70
2022-12-23T09:13:57.553Z,0.80
2022-12-23T09:14:57.546Z,0.60
2022-12-23T09:15:57.804Z,0.80
2022-12-23T09:17:03.526Z,0.90
2022-12-23T09:19:17.105Z,0.90
2022-12-23T09:20:10.874Z,0.90
2022-12-23T09:21:10.865Z,0.60
2022-12-23T09:22:16.869Z,1.00
2022-12-23T09:23:12.910Z,0.80
2022-12-23T09:24:11.034Z,0.80
2022-12-23T09:25:10.821Z,0.80
2022-12-23T09:26:10.822Z,0.70
2022-12-23T09:27:10.801Z,0.60
2022-12-23T09:28:10.789Z,0.70
2022-12-23T09:29:10.801Z,0.70
2022-12-23T09:30:10.775Z,0.70
2022-12-23T09:31:10.830Z,0.60
2022-12-23T09:32:17.159Z,0.70
2022-12-23T09:33:10.736Z,0.70
2022-12-23T09:34:10.923Z,0.50
2022-12-23T09:35:10.706Z,0.50
2022-12-23T09:36:10.726Z,0.70
2022-12-23T09:37:10.698Z,0.30
2022-12-23T09:38:10.691Z,0.50
2022-12-23T09:39:10.672Z,0.40
2022-12-23T09:40:11.061Z,0.50
2022-12-23T09:41:10.651Z,0.60
2022-12-23T09:42:16.639Z,0.80
2022-12-23T09:43:10.627Z,0.50
2022-12-23T09:44:10.615Z,0.80
2022-12-23T09:45:10.655Z,1.00
2022-12-23T09:46:10.700Z,0.70
2022-12-23T09:47:10.591Z,0.90
2022-12-23T09:48:10.569Z,0.70
2022-12-23T09:49:16.620Z,0.50
2022-12-23T09:50:10.555Z,0.80
2022-12-23T09:51:10.551Z,0.60
2022-12-23T09:52:10.524Z,0.80
2022-12-23T09:53:10.536Z,0.80
2022-12-23T09:54:16.394Z,0.80
2022-12-23T09:55:11.754Z,1.10
2022-12-23T09:56:10.692Z,0.90
2022-12-23T09:57:10.483Z,0.80
2022-12-23T09:58:16.465Z,0.90
2022-12-23T09:59:16.473Z,1.00
2022-12-23T10:00:10.434Z,1.00
2022-12-23T10:01:10.444Z,1.00
2022-12-23T10:02:10.716Z,1.10
2022-12-23T10:03:10.690Z,1.00
2022-12-23T10:04:10.519Z,1.20
2022-12-23T10:05:16.406Z,1.10
2022-12-23T10:06:16.388Z,1.00
2022-12-23T10:07:10.366Z,1.29
2022-12-23T10:08:10.547Z,1.00
2022-12-23T10:09:10.340Z,1.20
2022-12-23T10:10:10.339Z,1.10
2022-12-23T10:11:10.319Z,1.10
2022-12-23T10:12:10.522Z,1.10
2022-12-23T10:13:10.295Z,1.10
2022-12-23T10:14:10.291Z,1.10
2022-12-23T10:15:10.473Z,1.10
2022-12-23T10:16:12.307Z,1.00
2022-12-23T10:17:10.256Z,0.90
2022-12-23T10:18:10.324Z,1.20
2022-12-23T10:19:10.230Z,1.00
2022-12-23T10:20:10.235Z,1.10
2022-12-23T10:21:16.221Z,1.10
2022-12-23T10:22:10.209Z,1.00
2022-12-23T10:23:16.198Z,1.00
2022-12-23T10:24:10.262Z,1.00
2022-12-23T10:25:10.176Z,1.10
2022-12-23T10:26:10.365Z,0.70
2022-12-23T10:27:10.145Z,1.00
2022-12-23T10:28:10.167Z,1.00
2022-12-23T10:29:13.956Z,1.20
2022-12-23T10:30:34.375Z,1.00
2022-12-23T10:31:38.665Z,1.00
2022-12-23T10:32:17.393Z,0.70
2022-12-23T10:33:10.078Z,0.80
2022-12-23T10:34:10.307Z,0.80
2022-12-23T10:35:10.068Z,1.00
2022-12-23T10:36:10.108Z,1.10
2022-12-23T10:37:10.100Z,1.00
2022-12-23T10:38:10.043Z,1.00
2022-12-23T10:39:10.063Z,0.80
2022-12-23T10:40:16.020Z,1.00
2022-12-23T10:41:10.060Z,1.10
2022-12-23T10:42:16.004Z,0.80
2022-12-23T10:43:15.995Z,0.90
2022-12-23T10:44:09.990Z,0.90
2022-12-23T10:45:09.954Z,0.90
2022-12-23T10:46:15.980Z,0.90
2022-12-23T10:47:10.098Z,0.80
2022-12-23T10:48:13.968Z,0.80
2022-12-23T10:49:10.108Z,1.10
2022-12-23T10:50:15.947Z,1.10
2022-12-23T10:51:09.903Z,0.90
2022-12-23T10:52:09.889Z,1.00
2022-12-23T10:53:09.871Z,0.60
2022-12-23T10:54:09.871Z,0.80
2022-12-23T10:55:09.844Z,0.90
2022-12-23T10:56:09.850Z,0.80
2022-12-23T10:57:09.838Z,0.70
2022-12-23T10:58:09.833Z,1.00
2022-12-23T10:59:15.806Z,0.90
2022-12-23T11:00:09.813Z,0.80
2022-12-23T11:01:16.221Z,0.70
2022-12-23T11:02:10.274Z,0.90
2022-12-23T11:03:10.041Z,0.70
2022-12-23T11:04:09.758Z,0.80
2022-12-23T11:05:15.753Z,0.70
2022-12-23T11:06:15.775Z,0.80
2022-12-23T11:07:42.987Z,0.80
2022-12-23T11:08:10.748Z,0.60
2022-12-23T11:09:09.697Z,0.60
2022-12-23T11:10:09.898Z,0.80
2022-12-23T11:11:09.878Z,0.70
2022-12-23T11:12:09.675Z,0.80
2022-12-23T11:13:09.654Z,0.80
2022-12-23T11:14:09.672Z,0.90
2022-12-23T11:15:09.640Z,0.80
2022-12-23T11:16:09.930Z,0.60
2022-12-23T11:17:10.032Z,0.60
2022-12-23T11:18:09.607Z,0.60
2022-12-23T11:19:09.587Z,0.50
2022-12-23T11:20:09.616Z,0.50
2022-12-23T11:21:44.289Z,0.40
2022-12-23T11:22:44.251Z,0.40
2022-12-23T11:23:44.464Z,0.60
2022-12-23T11:24:44.234Z,0.50
2022-12-23T11:25:44.216Z,0.50
2022-12-23T11:26:44.255Z,0.60
2022-12-23T11:27:44.202Z,0.60
2022-12-23T11:28:44.191Z,0.40
2022-12-23T11:29:44.376Z,0.40
2022-12-23T11:30:44.165Z,0.60
2022-12-23T11:31:44.286Z,0.50
2022-12-23T11:32:44.189Z,0.60
2022-12-23T11:33:44.127Z,0.40
2022-12-23T11:34:44.126Z,0.50
2022-12-23T11:35:50.183Z,0.50
2022-12-23T11:36:44.146Z,0.60
2022-12-23T11:37:44.501Z,0.40
2022-12-23T11:38:44.073Z,0.60
2022-12-23T11:39:44.057Z,0.30
2022-12-23T11:40:44.054Z,0.40
2022-12-23T11:41:44.237Z,0.40
2022-12-23T11:42:44.036Z,0.30
2022-12-23T11:43:44.016Z,0.40
2022-12-23T11:44:44.019Z,0.50
2022-12-23T11:45:44.044Z,0.60
2022-12-23T11:46:43.999Z,0.70
2022-12-23T11:47:43.972Z,0.40
2022-12-23T11:48:43.975Z,0.40
2022-12-23T11:49:43.951Z,0.50
2022-12-23T11:50:43.948Z,0.50
2022-12-23T11:51:44.144Z,0.40
2022-12-23T11:52:43.927Z,0.50
2022-12-23T11:53:43.941Z,0.50
2022-12-23T11:54:43.905Z,0.40
2022-12-23T11:55:43.902Z,0.50
2022-12-23T11:56:43.932Z,0.50
2022-12-23T11:57:43.868Z,0.50
2022-12-23T11:58:43.870Z,0.40
2022-12-23T11:59:44.052Z,0.40
2022-12-23T12:00:43.848Z,0.40
2022-12-23T12:01:43.928Z,0.50
2022-12-23T12:02:43.825Z,0.40
2022-12-23T12:03:43.882Z,0.40
2022-12-23T12:04:43.805Z,0.50
2022-12-23T12:05:43.784Z,0.40
2022-12-23T12:06:43.778Z,0.40
2022-12-23T12:07:43.759Z,0.50
2022-12-23T12:08:43.766Z,0.60
2022-12-23T12:09:44.811Z,0.30
2022-12-23T12:10:43.745Z,0.60
2022-12-23T12:11:49.722Z,0.40
2022-12-23T12:12:43.706Z,0.50
2022-12-23T12:13:45.699Z,0.60
2022-12-23T12:14:43.686Z,0.40
2022-12-23T12:15:43.682Z,0.40
2022-12-23T12:16:43.723Z,0.40
2022-12-23T12:17:43.668Z,0.50
2022-12-23T12:18:43.652Z,0.60
2022-12-23T12:19:45.885Z,0.50
2022-12-23T12:20:43.628Z,0.60
2022-12-23T12:22:40.345Z,0.50
2022-12-23T12:23:34.297Z,0.50
2022-12-23T12:24:34.297Z,0.60
2022-12-23T12:25:38.126Z,0.70
2022-12-23T12:26:34.273Z,0.50
2022-12-23T12:27:34.462Z,0.40
2022-12-23T12:28:34.251Z,0.90
2022-12-23T12:29:34.250Z,0.50
2022-12-23T12:30:34.283Z,0.70
2022-12-23T12:31:34.221Z,0.50
2022-12-23T12:32:34.215Z,0.70
2022-12-23T12:33:40.217Z,0.60
2022-12-23T12:34:34.181Z,0.80
2022-12-23T12:35:34.183Z,0.60
2022-12-23T12:36:34.519Z,0.70
2022-12-23T12:37:40.162Z,0.80
2022-12-23T12:38:36.211Z,0.70
2022-12-23T12:39:40.146Z,0.70
2022-12-23T12:40:34.127Z,0.50
2022-12-23T12:41:34.175Z,0.60
2022-12-23T12:42:34.105Z,0.60
2022-12-23T12:43:34.095Z,0.50
2022-12-23T12:44:34.085Z,0.60
2022-12-23T12:45:34.117Z,0.60
2022-12-23T12:46:34.181Z,0.50
2022-12-23T12:47:59.448Z,0.60
2022-12-23T12:48:35.079Z,0.40
2022-12-23T12:49:34.018Z,0.60
2022-12-23T12:50:34.023Z,0.50
2022-12-23T12:51:40.019Z,0.50
2022-12-23T12:52:33.995Z,0.40
2022-12-23T12:53:33.986Z,0.60
2022-12-23T12:54:33.978Z,0.60
2022-12-23T12:55:39.964Z,0.40
2022-12-23T12:56:33.972Z,0.60
2022-12-23T12:57:33.979Z,0.60
2022-12-23T12:58:33.947Z,0.80
2022-12-23T12:59:33.919Z,0.60
2022-12-23T13:00:34.069Z,0.60
2022-12-23T13:01:33.982Z,0.30
2022-12-23T13:02:33.966Z,0.50
2022-12-23T13:03:33.881Z,0.30
2022-12-23T13:04:34.078Z,0.20
2022-12-23T13:05:33.855Z,0.40
2022-12-23T13:06:33.855Z,0.30
2022-12-23T13:08:53.290Z,0.60
2022-12-23T13:09:53.285Z,0.60
2022-12-23T13:10:47.457Z,0.70
2022-12-23T13:11:47.242Z,0.90
2022-12-23T13:12:47.259Z,0.40
2022-12-23T13:13:47.217Z,0.60
2022-12-23T13:14:53.227Z,0.40
2022-12-23T13:15:47.197Z,0.30
2022-12-23T13:16:47.244Z,0.20
2022-12-23T13:17:47.164Z,0.30
2022-12-23T13:18:47.168Z,0.30
2022-12-23T13:19:47.150Z,0.40
2022-12-23T13:20:47.152Z,0.50
2022-12-23T13:21:53.131Z,0.30
2022-12-23T13:22:53.334Z,0.20
2022-12-23T13:23:53.109Z,0.30
2022-12-23T13:24:47.107Z,0.30
2022-12-23T13:25:47.090Z,0.30
2022-12-23T13:26:47.082Z,0.20
2022-12-23T13:28:21.821Z,0.20
2022-12-23T13:29:21.758Z,0.20
2022-12-23T13:30:21.728Z,0.30
2022-12-23T13:31:21.815Z,0.20
2022-12-23T13:32:21.755Z,0.20
2022-12-23T13:33:27.717Z,0.30
2022-12-23T13:34:27.720Z,0.80
2022-12-23T13:35:21.686Z,0.30
2022-12-23T13:36:27.709Z,0.20
2022-12-23T13:37:21.665Z,0.30
2022-12-23T13:38:21.647Z,0.20
2022-12-23T13:39:21.664Z,0.20
2022-12-23T13:40:27.851Z,0.30
2022-12-23T13:41:21.649Z,0.60
2022-12-23T13:42:21.600Z,0.20
2022-12-23T13:43:21.601Z,0.30
2022-12-23T13:44:21.624Z,0.20
2022-12-23T13:45:21.583Z,0.30
2022-12-23T13:46:21.822Z,0.30
2022-12-23T13:47:21.786Z,0.50
2022-12-23T13:48:21.543Z,0.40
2022-12-23T13:49:21.543Z,0.20
2022-12-23T13:50:21.728Z,0.20
2022-12-23T13:51:27.527Z,0.30
2022-12-23T13:52:21.509Z,0.40
2022-12-23T13:53:21.512Z,0.80
2022-12-23T13:54:21.943Z,0.40
2022-12-23T13:55:21.688Z,0.40
2022-12-23T13:56:21.473Z,0.30
2022-12-23T13:57:21.459Z,0.60
2022-12-23T13:58:21.650Z,0.20
2022-12-23T13:59:21.435Z,0.20
2022-12-23T14:00:21.443Z,0.20
2022-12-23T14:01:21.471Z,0.40
2022-12-23T14:02:21.441Z,0.40
2022-12-23T14:03:21.405Z,0.40
2022-12-23T14:04:27.381Z,0.30
2022-12-23T14:05:21.389Z,0.20
2022-12-23T14:06:21.551Z,0.30
2022-12-23T14:07:21.369Z,0.30
2022-12-23T14:08:21.355Z,0.30
2022-12-23T14:09:27.333Z,0.30
2022-12-23T14:10:21.518Z,0.40
2022-12-23T14:11:21.317Z,0.30
2022-12-23T14:12:21.296Z,0.10
2022-12-23T14:13:21.313Z,0.20
2022-12-23T14:14:21.475Z,0.30
2022-12-23T14:15:21.276Z,0.40
2022-12-23T14:16:21.460Z,0.70
2022-12-23T14:17:21.252Z,0.50
2022-12-23T14:18:21.229Z,0.70
2022-12-23T14:19:21.216Z,0.70
2022-12-23T14:20:21.228Z,0.70
2022-12-23T14:21:21.215Z,0.50
2022-12-23T14:22:27.205Z,0.90
2022-12-23T14:24:04.198Z,0.40
2022-12-23T14:24:59.909Z,0.50
2022-12-23T14:25:59.918Z,0.40
2022-12-23T14:27:00.137Z,0.40
2022-12-23T14:27:59.883Z,0.30
2022-12-23T14:28:59.866Z,0.20
2022-12-23T14:30:05.196Z,0.30
2022-12-23T14:31:01.887Z,0.30
2022-12-23T14:31:59.860Z,0.20
2022-12-23T14:32:59.820Z,0.30
2022-12-23T14:33:59.814Z,0.30
2022-12-23T14:34:59.802Z,0.20
2022-12-23T14:36:05.846Z,0.20
2022-12-23T14:36:59.780Z,0.30
2022-12-23T14:37:59.776Z,0.20
2022-12-23T14:38:59.766Z,0.20
2022-12-23T14:39:59.759Z,0.20
2022-12-23T14:40:59.743Z,0.20
2022-12-23T14:42:05.775Z,0.30
2022-12-23T14:43:01.713Z,0.20
2022-12-23T14:43:59.733Z,0.20
2022-12-23T14:44:59.690Z,0.30
2022-12-23T14:45:59.752Z,0.20
2022-12-23T14:46:59.871Z,0.30
2022-12-23T14:47:59.686Z,0.20
2022-12-23T14:49:29.812Z,0.30
2022-12-23T14:50:00.684Z,0.20
2022-12-23T14:50:59.632Z,0.20
2022-12-23T14:51:59.636Z,0.30
2022-12-23T14:52:59.603Z,0.30
2022-12-23T14:53:59.650Z,0.20
2022-12-23T14:55:28.445Z,0.10
2022-12-23T14:56:00.615Z,0.20
2022-12-23T14:56:59.562Z,0.20
2022-12-23T14:58:03.113Z,0.20
2022-12-23T14:59:06.594Z,0.20
2022-12-23T14:59:59.542Z,0.10
2022-12-23T15:00:59.523Z,0.20
2022-12-23T15:01:59.576Z,0.20
2022-12-23T15:02:59.541Z,0.30
2022-12-23T15:04:01.842Z,0.20
2022-12-23T15:04:59.489Z,0.10
2022-12-23T15:05:59.471Z,0.20
2022-12-23T15:06:59.452Z,0.30
2022-12-23T15:07:59.451Z,0.30
2022-12-23T15:09:34.129Z,0.60
2022-12-23T15:10:34.115Z,0.60
2022-12-23T15:11:34.101Z,0.30
2022-12-23T15:12:36.346Z,0.50
2022-12-23T15:13:34.086Z,0.30
2022-12-23T15:14:34.063Z,0.30
2022-12-23T15:15:34.061Z,0.30
2022-12-23T15:16:34.533Z,0.30
2022-12-23T15:17:34.047Z,0.20
2022-12-23T15:18:34.044Z,0.30
2022-12-23T15:19:40.050Z,0.20
2022-12-23T15:20:34.014Z,0.40
2022-12-23T15:21:34.005Z,0.30
2022-12-23T15:23:33.977Z,0.60
2022-12-23T15:24:33.960Z,0.30
2022-12-23T15:26:33.936Z,0.30
2022-12-23T15:28:39.929Z,0.20
2022-12-23T15:29:40.337Z,0.30
2022-12-23T15:30:33.943Z,0.30
2022-12-23T15:34:33.870Z,0.40
2022-12-23T15:37:33.856Z,1.00
2022-12-23T15:47:14.756Z,0.30
2022-12-23T15:53:13.618Z,0.50
2022-12-23T15:54:12.544Z,0.40
2022-12-23T15:58:12.299Z,0.20
2022-12-23T16:01:12.276Z,0.40
2022-12-23T16:02:49.836Z,0.30
2022-12-23T16:05:12.241Z,0.30
2022-12-23T16:06:18.241Z,0.40
2022-12-23T16:08:12.222Z,0.30
2022-12-23T17:42:46.006Z,1.00
2022-12-23T18:45:20.224Z,1.10
2022-12-23T18:47:20.332Z,1.00
2022-12-23T18:57:20.018Z,1.10
2022-12-23T18:58:20.018Z,1.00
2022-12-23T18:59:24.349Z,1.20
2022-12-23T19:03:55.095Z,1.00
2022-12-23T19:06:55.065Z,1.10
2022-12-23T19:07:55.068Z,1.00
2022-12-23T19:10:55.020Z,1.10
2022-12-23T19:12:54.995Z,1.00
2022-12-23T19:14:01.004Z,1.00
2022-12-23T19:14:54.981Z,1.20
2022-12-23T19:15:55.108Z,1.00
2022-12-23T19:18:54.940Z,1.10
2022-12-23T19:22:54.946Z,1.00
2022-12-23T19:23:54.913Z,1.29
2022-12-23T19:29:00.844Z,1.10
2022-12-23T19:29:54.828Z,1.10
2022-12-23T19:30:54.847Z,1.00
2022-12-23T19:32:54.818Z,1.10
2022-12-23T19:33:54.792Z,1.10
2022-12-23T19:34:54.773Z,1.20
2022-12-23T19:35:54.774Z,1.00
2022-12-23T19:36:54.752Z,1.29
2022-12-23T19:37:54.756Z,1.20
2022-12-23T19:39:54.730Z,1.10
2022-12-23T19:40:54.774Z,1.00
2022-12-23T19:41:54.698Z,1.20
2022-12-23T19:42:54.700Z,1.00
2022-12-23T19:44:54.663Z,1.10
2022-12-23T19:45:54.892Z,1.39
2022-12-23T19:46:54.748Z,1.29
2022-12-23T19:49:54.831Z,1.20
2022-12-23T19:52:33.339Z,1.00
2022-12-23T19:53:33.330Z,1.00
2022-12-23T19:54:35.372Z,1.39
2022-12-23T19:55:39.310Z,1.29
2022-12-23T19:56:33.296Z,1.79
2022-12-23T19:57:39.284Z,1.79
2022-12-23T19:58:33.301Z,1.60
2022-12-23T19:59:33.258Z,1.39
2022-12-23T20:00:33.263Z,1.10
2022-12-23T20:01:33.259Z,1.50
2022-12-23T20:03:12.077Z,1.79
2022-12-23T20:04:12.030Z,1.60
2022-12-23T20:05:12.011Z,1.39
2022-12-23T20:06:11.997Z,1.29
2022-12-23T20:07:12.193Z,1.10
2022-12-23T20:08:11.966Z,1.29
2022-12-23T20:09:17.975Z,1.20
2022-12-23T20:10:17.951Z,1.20
2022-12-23T20:11:11.940Z,1.10
2022-12-23T20:12:12.152Z,1.20
2022-12-23T20:13:11.924Z,1.29
2022-12-23T20:14:11.909Z,1.20
2022-12-23T20:15:17.911Z,1.29
2022-12-23T20:16:12.232Z,1.00
2022-12-23T20:17:11.877Z,1.00
2022-12-23T20:18:11.866Z,1.10
2022-12-23T20:19:12.064Z,1.20
2022-12-23T20:20:11.882Z,1.29
2022-12-23T20:21:11.889Z,1.00
2022-12-23T20:22:12.018Z,1.00
2022-12-23T20:23:11.815Z,1.10
2022-12-23T20:24:11.810Z,1.29
2022-12-23T20:25:11.795Z,1.29
2022-12-23T20:26:46.540Z,1.10
2022-12-23T20:27:48.557Z,1.20
2022-12-23T20:28:46.702Z,1.39
2022-12-23T20:29:46.688Z,1.10
2022-12-23T20:30:46.535Z,1.29
2022-12-23T20:31:46.563Z,1.10
2022-12-23T20:34:33.277Z,1.20
2022-12-23T20:35:31.302Z,1.20
2022-12-23T20:36:29.575Z,1.50
2022-12-23T20:37:29.257Z,1.60
2022-12-23T20:38:29.255Z,1.39
2022-12-23T20:39:29.241Z,1.20
2022-12-23T20:40:29.241Z,1.70
2022-12-23T20:41:29.213Z,1.70
2022-12-23T20:42:29.212Z,2.00
2022-12-23T20:43:29.197Z,1.70
2022-12-23T20:44:35.219Z,1.50
2022-12-23T20:45:30.215Z,1.79
2022-12-23T20:46:29.196Z,1.29
2022-12-23T20:47:29.152Z,1.29
2022-12-23T20:48:35.174Z,1.10
2022-12-23T20:49:35.178Z,1.39
2022-12-23T20:51:03.883Z,1.20
2022-12-23T20:52:03.869Z,1.10
2022-12-23T20:53:03.838Z,1.10
2022-12-23T20:54:03.838Z,1.29
2022-12-23T20:55:03.824Z,1.00
2022-12-23T20:56:03.819Z,1.00
2022-12-23T20:57:04.109Z,1.10
2022-12-23T20:58:03.795Z,1.10
2022-12-23T21:00:03.777Z,1.10
2022-12-23T21:01:03.758Z,1.20
2022-12-23T21:02:03.838Z,1.00
2022-12-23T21:03:10.080Z,1.39
2022-12-23T21:04:11.754Z,1.10
2022-12-23T21:05:03.712Z,1.10
2022-12-23T21:06:03.707Z,1.10
2022-12-23T21:07:03.722Z,1.20
2022-12-23T21:08:03.691Z,1.10
2022-12-23T21:09:03.692Z,1.10
2022-12-23T21:10:03.873Z,1.29
2022-12-23T21:11:38.419Z,1.00
2022-12-23T21:12:38.385Z,1.20
2022-12-23T21:13:38.366Z,1.29
2022-12-23T21:14:38.575Z,1.50
2022-12-23T21:15:38.344Z,1.20
2022-12-23T21:16:38.505Z,1.10
2022-12-23T21:17:44.538Z,1.50
2022-12-23T21:18:38.332Z,1.10
2022-12-23T21:19:38.304Z,1.50
2022-12-23T21:20:38.317Z,1.39
2022-12-23T21:21:38.284Z,1.20
2022-12-23T21:22:38.308Z,1.29
2022-12-23T21:23:38.267Z,1.50
2022-12-23T21:24:38.263Z,1.39
2022-12-23T21:25:38.243Z,1.10
2022-12-23T21:26:38.244Z,1.39
2022-12-23T21:27:38.222Z,1.20
2022-12-23T21:28:38.220Z,1.20
2022-12-23T21:29:38.200Z,1.10
2022-12-23T21:30:38.201Z,1.10
2022-12-23T21:31:44.258Z,1.20
2022-12-23T21:32:38.184Z,1.10
2022-12-23T21:33:38.182Z,1.20
2022-12-23T21:34:38.176Z,1.39
2022-12-23T21:35:38.137Z,1.20
2022-12-23T21:36:44.246Z,2.79
2022-12-23T21:38:16.892Z,1.10
2022-12-23T21:39:16.864Z,1.20
2022-12-23T21:40:23.052Z,2.00
2022-12-23T21:41:22.843Z,1.29
2022-12-23T21:42:16.818Z,1.10
2022-12-23T21:43:16.817Z,1.39
2022-12-23T21:44:22.815Z,1.29
2022-12-23T21:45:17.000Z,1.00
2022-12-23T21:46:16.935Z,1.39
2022-12-23T21:47:16.900Z,1.29
2022-12-23T21:48:16.757Z,1.00
2022-12-23T21:49:16.757Z,1.10
2022-12-23T21:50:16.732Z,1.39
2022-12-23T21:51:16.935Z,1.20
2022-12-23T21:53:16.712Z,1.70
2022-12-23T21:54:22.723Z,1.10
2022-12-23T21:55:16.693Z,1.39
2022-12-23T21:56:16.678Z,1.29
2022-12-23T21:57:16.674Z,1.20
2022-12-23T21:58:16.651Z,1.60
2022-12-23T21:59:16.675Z,1.10
2022-12-23T22:00:16.634Z,1.50
2022-12-23T22:01:16.922Z,1.60
2022-12-23T22:02:16.715Z,1.39
2022-12-23T22:03:16.628Z,1.20
2022-12-23T22:04:16.590Z,1.00
2022-12-23T22:05:16.586Z,1.20
2022-12-23T22:06:22.599Z,1.10
2022-12-23T22:07:16.582Z,1.00
2022-12-23T22:08:16.581Z,1.39
2022-12-23T22:09:16.569Z,1.10
2022-12-23T22:10:22.555Z,1.39
2022-12-23T22:11:16.548Z,1.50
2022-12-23T22:12:16.508Z,1.29
2022-12-23T22:13:22.514Z,1.10
2022-12-23T22:14:16.495Z,1.39
2022-12-23T22:15:16.685Z,1.20
2022-12-23T22:16:16.507Z,1.20
2022-12-23T22:17:16.465Z,1.29
2022-12-23T22:18:22.455Z,1.29
2022-12-23T22:19:16.438Z,1.29
2022-12-23T22:20:16.431Z,1.39
2022-12-23T22:21:16.421Z,1.39
2022-12-23T22:22:16.403Z,1.50
2022-12-23T22:23:16.419Z,1.10
2022-12-23T22:24:16.582Z,1.39
2022-12-23T22:25:16.378Z,1.50
2022-12-23T22:26:25.667Z,1.60
2022-12-23T22:27:16.362Z,1.39
2022-12-23T22:28:16.346Z,1.00
2022-12-23T22:29:16.342Z,1.39
2022-12-23T22:30:16.321Z,1.29
2022-12-23T22:31:16.355Z,1.29
2022-12-23T22:32:16.306Z,1.20
2022-12-23T22:33:16.303Z,1.10
2022-12-23T22:34:16.503Z,1.39
2022-12-23T22:35:22.286Z,1.50
2022-12-23T22:36:16.294Z,1.10
2022-12-23T22:37:16.256Z,1.50
2022-12-23T22:38:16.236Z,1.10
2022-12-23T22:39:20.734Z,1.29
2022-12-23T22:40:59.021Z,1.50
2022-12-23T22:41:59.023Z,1.50
2022-12-23T22:42:58.997Z,1.20
2022-12-23T22:43:59.026Z,1.29
2022-12-23T22:44:58.979Z,1.39
2022-12-23T22:46:04.990Z,1.39
2022-12-23T22:46:59.163Z,1.20
2022-12-23T22:47:58.962Z,1.10
2022-12-23T22:48:59.140Z,1.10
2022-12-23T22:49:58.929Z,1.10
2022-12-23T22:50:58.917Z,1.20
2022-12-23T22:52:41.701Z,1.10
2022-12-23T22:53:41.692Z,1.10
2022-12-23T22:54:41.673Z,1.20
2022-12-23T22:55:41.690Z,1.20
2022-12-23T22:56:41.653Z,1.39
2022-12-23T22:57:47.678Z,1.50
2022-12-23T22:58:41.632Z,1.10
2022-12-23T22:59:41.833Z,1.39
2022-12-23T23:00:41.609Z,1.39
2022-12-23T23:01:41.654Z,1.50
2022-12-23T23:02:41.795Z,1.29
2022-12-23T23:03:43.635Z,1.00
2022-12-23T23:04:41.588Z,1.10
2022-12-23T23:05:41.699Z,1.29
2022-12-23T23:06:41.556Z,1.10
2022-12-23T23:07:41.546Z,1.60
2022-12-23T23:08:41.543Z,1.39
2022-12-23T23:09:41.544Z,1.10
2022-12-23T23:10:41.516Z,1.20
2022-12-23T23:11:41.500Z,1.20
2022-12-23T23:12:47.508Z,1.29
2022-12-23T23:13:41.498Z,1.29
2022-12-23T23:14:41.480Z,1.10
2022-12-23T23:15:41.453Z,1.29
2022-12-23T23:16:41.619Z,1.70
2022-12-23T23:17:47.449Z,1.00
2022-12-23T23:19:16.372Z,1.79
2022-12-23T23:20:16.566Z,1.60
2022-12-23T23:21:16.364Z,1.10
2022-12-23T23:22:16.339Z,1.60
2022-12-23T23:23:16.322Z,1.29
2022-12-23T23:24:16.321Z,1.20
2022-12-23T23:25:16.299Z,1.10
2022-12-23T23:26:16.296Z,1.39
2022-12-23T23:27:51.016Z,1.10
2022-12-23T23:28:51.073Z,1.10
2022-12-23T23:29:51.210Z,1.39
2022-12-23T23:31:09.795Z,1.00
2022-12-23T23:31:52.125Z,1.10
2022-12-23T23:32:50.979Z,1.00
2022-12-23T23:33:50.948Z,1.10
2022-12-23T23:34:50.958Z,1.29
2022-12-23T23:35:50.930Z,1.60
2022-12-23T23:36:51.217Z,1.50
2022-12-23T23:37:50.910Z,1.29
2022-12-23T23:38:50.913Z,1.39
2022-12-23T23:39:50.888Z,1.20
2022-12-23T23:40:50.892Z,1.29
2022-12-23T23:41:58.906Z,1.29
2022-12-23T23:42:50.861Z,1.50
2022-12-23T23:43:50.886Z,1.00
2022-12-23T23:44:50.873Z,1.39
2022-12-23T23:45:50.907Z,1.10
2022-12-23T23:46:50.823Z,1.20
2022-12-23T23:47:50.814Z,1.00
2022-12-23T23:48:50.819Z,1.20
2022-12-23T23:49:50.785Z,1.00
2022-12-23T23:50:50.979Z,1.29
2022-12-23T23:51:50.769Z,1.20
2022-12-23T23:52:50.781Z,1.39
2022-12-23T23:53:50.753Z,1.39
2022-12-23T23:54:50.741Z,1.50
2022-12-23T23:55:50.725Z,2.29
2022-12-23T23:56:50.736Z,1.39
2022-12-23T23:57:50.914Z,1.29
2022-12-23T23:58:50.697Z,1.20
2022-12-23T23:59:50.691Z,1.39
